sensor_id;sensor_type;location;lat;lon;timestamp;temperature;humidity
16479;DHT22;8350;52.316;10.530;2023-04-03T00:00:56;-0.60;6.60
16479;DHT22;8350;52.316;10.530;2023-04-03T00:03:23;-0.50;12.00
16479;DHT22;8350;52.316;10.530;2023-04-03T00:05:54;-0.30;8.40
16479;DHT22;8350;52.316;10.530;2023-04-03T00:08:22;-0.20;1.00
16479;DHT22;8350;52.316;10.530;2023-04-03T00:10:49;-0.10;1.00
16479;DHT22;8350;52.316;10.530;2023-04-03T00:13:17;-0.20;1.00
16479;DHT22;8350;52.316;10.530;2023-04-03T00:15:44;-0.40;1.00
16479;DHT22;8350;52.316;10.530;2023-04-03T00:18:11;-0.50;1.00
16479;DHT22;8350;52.316;10.530;2023-04-03T00:20:38;-0.70;1.00
16479;DHT22;8350;52.316;10.530;2023-04-03T00:23:06;-0.90;1.00
16479;DHT22;8350;52.316;10.530;2023-04-03T00:25:36;-1.00;9.20
16479;DHT22;8350;52.316;10.530;2023-04-03T00:28:03;-0.90;21.40
16479;DHT22;8350;52.316;10.530;2023-04-03T00:30:31;-0.90;28.20
16479;DHT22;8350;52.316;10.530;2023-04-03T00:32:59;-0.80;39.40
16479;DHT22;8350;52.316;10.530;2023-04-03T00:35:26;-0.80;55.40
16479;DHT22;8350;52.316;10.530;2023-04-03T00:37:55;-0.90;60.30
16479;DHT22;8350;52.316;10.530;2023-04-03T00:40:24;-0.90;70.80
16479;DHT22;8350;52.316;10.530;2023-04-03T00:42:56;-0.90;79.20
16479;DHT22;8350;52.316;10.530;2023-04-03T00:45:31;-1.00;82.50
16479;DHT22;8350;52.316;10.530;2023-04-03T00:48:00;-1.00;93.60
16479;DHT22;8350;52.316;10.530;2023-04-03T00:50:30;-1.00;98.00
16479;DHT22;8350;52.316;10.530;2023-04-03T00:52:58;-1.00;97.10
16479;DHT22;8350;52.316;10.530;2023-04-03T00:55:25;-1.00;95.00
16479;DHT22;8350;52.316;10.530;2023-04-03T00:57:57;-1.00;92.90
16479;DHT22;8350;52.316;10.530;2023-04-03T01:00:31;-1.10;96.40
16479;DHT22;8350;52.316;10.530;2023-04-03T01:02:59;-1.00;99.90
16479;DHT22;8350;52.316;10.530;2023-04-03T01:05:28;-1.10;99.90
16479;DHT22;8350;52.316;10.530;2023-04-03T01:07:57;-1.00;99.90
16479;DHT22;8350;52.316;10.530;2023-04-03T01:10:26;-1.00;99.90
16479;DHT22;8350;52.316;10.530;2023-04-03T01:12:54;-0.80;99.90
16479;DHT22;8350;52.316;10.530;2023-04-03T01:15:24;-0.80;99.90
16479;DHT22;8350;52.316;10.530;2023-04-03T01:17:53;-0.80;99.90
16479;DHT22;8350;52.316;10.530;2023-04-03T01:20:50;-0.80;99.90
16479;DHT22;8350;52.316;10.530;2023-04-03T01:23:35;-0.80;99.90
16479;DHT22;8350;52.316;10.530;2023-04-03T01:26:05;-0.80;99.90
16479;DHT22;8350;52.316;10.530;2023-04-03T01:28:33;-0.80;99.90
16479;DHT22;8350;52.316;10.530;2023-04-03T01:31:09;-0.70;99.90
16479;DHT22;8350;52.316;10.530;2023-04-03T01:33:54;-0.80;99.60
16479;DHT22;8350;52.316;10.530;2023-04-03T01:36:24;-0.80;99.90
16479;DHT22;8350;52.316;10.530;2023-04-03T01:38:52;-0.80;99.90
16479;DHT22;8350;52.316;10.530;2023-04-03T01:41:20;-0.90;99.90
16479;DHT22;8350;52.316;10.530;2023-04-03T01:43:50;-1.00;99.90
16479;DHT22;8350;52.316;10.530;2023-04-03T01:46:17;-1.10;95.70
16479;DHT22;8350;52.316;10.530;2023-04-03T01:48:45;-1.30;93.00
16479;DHT22;8350;52.316;10.530;2023-04-03T01:51:13;-1.40;92.20
16479;DHT22;8350;52.316;10.530;2023-04-03T01:53:40;-1.50;99.00
16479;DHT22;8350;52.316;10.530;2023-04-03T01:56:08;-1.60;99.90
16479;DHT22;8350;52.316;10.530;2023-04-03T01:58:35;-1.80;99.90
16479;DHT22;8350;52.316;10.530;2023-04-03T02:01:02;-1.80;99.90
16479;DHT22;8350;52.316;10.530;2023-04-03T02:03:35;-1.70;99.90
16479;DHT22;8350;52.316;10.530;2023-04-03T02:06:02;-1.60;99.90
16479;DHT22;8350;52.316;10.530;2023-04-03T02:08:31;-1.50;99.90
16479;DHT22;8350;52.316;10.530;2023-04-03T02:10:58;-1.50;95.00
16479;DHT22;8350;52.316;10.530;2023-04-03T02:13:25;-1.50;90.80
16479;DHT22;8350;52.316;10.530;2023-04-03T02:15:52;-1.40;79.70
16479;DHT22;8350;52.316;10.530;2023-04-03T02:18:19;-1.40;76.50
16479;DHT22;8350;52.316;10.530;2023-04-03T02:20:46;-1.30;62.50
16479;DHT22;8350;52.316;10.530;2023-04-03T02:23:16;-1.20;47.60
16479;DHT22;8350;52.316;10.530;2023-04-03T02:25:45;-1.30;29.50
16479;DHT22;8350;52.316;10.530;2023-04-03T02:28:16;-1.40;22.90
16479;DHT22;8350;52.316;10.530;2023-04-03T02:30:43;-1.40;30.30
16479;DHT22;8350;52.316;10.530;2023-04-03T02:33:10;-1.40;37.00
16479;DHT22;8350;52.316;10.530;2023-04-03T02:35:40;-1.40;32.70
16479;DHT22;8350;52.316;10.530;2023-04-03T02:38:08;-1.40;34.70
16479;DHT22;8350;52.316;10.530;2023-04-03T02:40:35;-1.50;20.50
16479;DHT22;8350;52.316;10.530;2023-04-03T02:43:03;-1.60;27.90
16479;DHT22;8350;52.316;10.530;2023-04-03T02:45:36;-1.40;41.80
16479;DHT22;8350;52.316;10.530;2023-04-03T02:48:04;-1.50;33.80
16479;DHT22;8350;52.316;10.530;2023-04-03T02:50:31;-1.40;32.80
16479;DHT22;8350;52.316;10.530;2023-04-03T02:52:58;-1.40;24.30
16479;DHT22;8350;52.316;10.530;2023-04-03T02:55:25;-1.50;18.50
16479;DHT22;8350;52.316;10.530;2023-04-03T02:57:54;-1.50;18.20
16479;DHT22;8350;52.316;10.530;2023-04-03T03:00:25;-1.50;22.10
16479;DHT22;8350;52.316;10.530;2023-04-03T03:02:52;-1.60;14.70
16479;DHT22;8350;52.316;10.530;2023-04-03T03:05:18;-1.70;15.90
16479;DHT22;8350;52.316;10.530;2023-04-03T03:07:45;-1.70;25.30
16479;DHT22;8350;52.316;10.530;2023-04-03T03:10:12;-1.70;24.90
16479;DHT22;8350;52.316;10.530;2023-04-03T03:12:39;-1.80;23.80
16479;DHT22;8350;52.316;10.530;2023-04-03T03:15:07;-1.80;28.30
16479;DHT22;8350;52.316;10.530;2023-04-03T03:17:36;-1.90;37.70
16479;DHT22;8350;52.316;10.530;2023-04-03T03:20:03;-2.00;46.60
16479;DHT22;8350;52.316;10.530;2023-04-03T03:22:30;-2.00;55.50
16479;DHT22;8350;52.316;10.530;2023-04-03T03:24:57;-1.90;71.90
16479;DHT22;8350;52.316;10.530;2023-04-03T03:27:24;-1.90;68.40
16479;DHT22;8350;52.316;10.530;2023-04-03T03:29:51;-1.90;63.40
16479;DHT22;8350;52.316;10.530;2023-04-03T03:32:18;-1.90;57.30
16479;DHT22;8350;52.316;10.530;2023-04-03T03:34:46;-1.90;56.90
16479;DHT22;8350;52.316;10.530;2023-04-03T03:37:16;-1.90;53.50
16479;DHT22;8350;52.316;10.530;2023-04-03T03:39:43;-2.10;44.70
16479;DHT22;8350;52.316;10.530;2023-04-03T03:42:12;-2.20;48.00
16479;DHT22;8350;52.316;10.530;2023-04-03T03:44:40;-2.40;57.40
16479;DHT22;8350;52.316;10.530;2023-04-03T03:47:06;-2.50;78.10
16479;DHT22;8350;52.316;10.530;2023-04-03T03:49:36;-2.50;84.70
16479;DHT22;8350;52.316;10.530;2023-04-03T03:52:04;-2.50;90.00
16479;DHT22;8350;52.316;10.530;2023-04-03T03:54:31;-2.60;91.80
16479;DHT22;8350;52.316;10.530;2023-04-03T03:56:58;-2.70;91.00
16479;DHT22;8350;52.316;10.530;2023-04-03T03:59:28;-2.70;92.40
16479;DHT22;8350;52.316;10.530;2023-04-03T04:01:55;-2.70;93.30
16479;DHT22;8350;52.316;10.530;2023-04-03T04:04:22;-2.70;97.10
16479;DHT22;8350;52.316;10.530;2023-04-03T04:06:49;-2.70;97.10
16479;DHT22;8350;52.316;10.530;2023-04-03T04:09:17;-2.80;99.40
16479;DHT22;8350;52.316;10.530;2023-04-03T04:11:57;-2.80;99.90
16479;DHT22;8350;52.316;10.530;2023-04-03T04:14:24;-2.80;99.90
16479;DHT22;8350;52.316;10.530;2023-04-03T04:16:53;-2.90;99.90
16479;DHT22;8350;52.316;10.530;2023-04-03T04:19:20;-2.90;99.90
16479;DHT22;8350;52.316;10.530;2023-04-03T04:21:46;-3.00;99.90
16479;DHT22;8350;52.316;10.530;2023-04-03T04:24:13;-3.00;99.90
16479;DHT22;8350;52.316;10.530;2023-04-03T04:26:42;-3.00;99.90
16479;DHT22;8350;52.316;10.530;2023-04-03T04:29:09;-3.00;99.90
16479;DHT22;8350;52.316;10.530;2023-04-03T04:31:39;-3.00;99.90
16479;DHT22;8350;52.316;10.530;2023-04-03T04:34:06;-2.90;99.90
16479;DHT22;8350;52.316;10.530;2023-04-03T04:36:47;-3.00;99.90
16479;DHT22;8350;52.316;10.530;2023-04-03T04:39:14;-3.00;99.90
16479;DHT22;8350;52.316;10.530;2023-04-03T04:41:43;-3.20;99.90
16479;DHT22;8350;52.316;10.530;2023-04-03T04:44:10;-3.30;99.90
16479;DHT22;8350;52.316;10.530;2023-04-03T04:46:37;-3.30;99.90
16479;DHT22;8350;52.316;10.530;2023-04-03T04:49:03;-3.30;99.90
16479;DHT22;8350;52.316;10.530;2023-04-03T04:51:31;-3.20;99.90
16479;DHT22;8350;52.316;10.530;2023-04-03T04:53:58;-3.20;99.90
16479;DHT22;8350;52.316;10.530;2023-04-03T04:56:25;-3.10;99.90
16479;DHT22;8350;52.316;10.530;2023-04-03T04:58:54;-3.10;99.90
16479;DHT22;8350;52.316;10.530;2023-04-03T05:01:21;-3.00;99.90
16479;DHT22;8350;52.316;10.530;2023-04-03T05:03:48;-3.00;99.90
16479;DHT22;8350;52.316;10.530;2023-04-03T05:06:14;-2.90;99.90
16479;DHT22;8350;52.316;10.530;2023-04-03T05:08:41;-2.50;99.90
16479;DHT22;8350;52.316;10.530;2023-04-03T05:11:08;-2.00;99.90
16479;DHT22;8350;52.316;10.530;2023-04-03T05:13:35;-1.30;99.90
16479;DHT22;8350;52.316;10.530;2023-04-03T05:16:04;-0.50;6.20
16479;DHT22;8350;52.316;10.530;2023-04-03T05:18:34;0.10;1.00
16479;DHT22;8350;52.316;10.530;2023-04-03T05:21:03;0.60;1.00
16479;DHT22;8350;52.316;10.530;2023-04-03T05:23:30;1.00;1.00
16479;DHT22;8350;52.316;10.530;2023-04-03T05:26:00;1.40;1.00
16479;DHT22;8350;52.316;10.530;2023-04-03T05:28:27;1.50;1.00
16479;DHT22;8350;52.316;10.530;2023-04-03T05:30:54;1.10;1.00
16479;DHT22;8350;52.316;10.530;2023-04-03T05:33:26;0.20;1.00
16479;DHT22;8350;52.316;10.530;2023-04-03T05:35:53;-0.50;1.00
16479;DHT22;8350;52.316;10.530;2023-04-03T05:38:20;-1.10;1.00
16479;DHT22;8350;52.316;10.530;2023-04-03T05:40:47;-1.10;18.00
16479;DHT22;8350;52.316;10.530;2023-04-03T05:43:16;-0.10;88.50
16479;DHT22;8350;52.316;10.530;2023-04-03T05:45:43;1.40;1.00
16479;DHT22;8350;52.316;10.530;2023-04-03T05:48:10;2.80;1.00
16479;DHT22;8350;52.316;10.530;2023-04-03T05:50:42;3.90;1.00
16479;DHT22;8350;52.316;10.530;2023-04-03T05:53:15;5.00;1.00
16479;DHT22;8350;52.316;10.530;2023-04-03T05:55:44;5.80;99.90
16479;DHT22;8350;52.316;10.530;2023-04-03T05:58:11;6.10;99.90
16479;DHT22;8350;52.316;10.530;2023-04-03T06:00:39;6.60;7.80
16479;DHT22;8350;52.316;10.530;2023-04-03T06:03:12;6.50;39.20
16479;DHT22;8350;52.316;10.530;2023-04-03T06:05:39;6.10;99.90
16479;DHT22;8350;52.316;10.530;2023-04-03T06:08:08;5.20;99.90
16479;DHT22;8350;52.316;10.530;2023-04-03T06:10:35;4.60;1.00
16479;DHT22;8350;52.316;10.530;2023-04-03T06:13:05;4.50;1.00
16479;DHT22;8350;52.316;10.530;2023-04-03T06:15:32;4.80;99.90
16479;DHT22;8350;52.316;10.530;2023-04-03T06:17:59;4.50;1.00
16479;DHT22;8350;52.316;10.530;2023-04-03T06:20:26;4.60;1.00
16479;DHT22;8350;52.316;10.530;2023-04-03T06:22:53;4.60;1.00
16479;DHT22;8350;52.316;10.530;2023-04-03T06:25:22;4.90;1.00
16479;DHT22;8350;52.316;10.530;2023-04-03T06:27:49;4.10;1.00
16479;DHT22;8350;52.316;10.530;2023-04-03T06:30:16;3.50;1.00
16479;DHT22;8350;52.316;10.530;2023-04-03T06:32:43;3.50;1.00
16479;DHT22;8350;52.316;10.530;2023-04-03T06:35:10;3.50;1.00
16479;DHT22;8350;52.316;10.530;2023-04-03T06:37:37;3.40;1.00
16479;DHT22;8350;52.316;10.530;2023-04-03T06:40:05;3.40;1.00
16479;DHT22;8350;52.316;10.530;2023-04-03T06:42:33;3.30;1.00
16479;DHT22;8350;52.316;10.530;2023-04-03T06:45:04;3.20;1.00
16479;DHT22;8350;52.316;10.530;2023-04-03T06:47:33;2.90;1.00
16479;DHT22;8350;52.316;10.530;2023-04-03T06:50:00;3.00;1.00
16479;DHT22;8350;52.316;10.530;2023-04-03T06:52:26;3.10;1.00
16479;DHT22;8350;52.316;10.530;2023-04-03T06:54:53;3.00;1.00
16479;DHT22;8350;52.316;10.530;2023-04-03T06:57:23;3.00;1.00
16479;DHT22;8350;52.316;10.530;2023-04-03T06:59:54;3.00;1.00
16479;DHT22;8350;52.316;10.530;2023-04-03T07:02:21;2.60;1.00
16479;DHT22;8350;52.316;10.530;2023-04-03T07:04:48;2.50;1.00
16479;DHT22;8350;52.316;10.530;2023-04-03T07:07:14;2.50;1.00
16479;DHT22;8350;52.316;10.530;2023-04-03T07:09:47;2.40;1.00
16479;DHT22;8350;52.316;10.530;2023-04-03T07:12:14;2.20;1.00
16479;DHT22;8350;52.316;10.530;2023-04-03T07:14:42;2.10;1.00
16479;DHT22;8350;52.316;10.530;2023-04-03T07:17:10;2.00;1.00
16479;DHT22;8350;52.316;10.530;2023-04-03T07:19:37;2.10;1.00
16479;DHT22;8350;52.316;10.530;2023-04-03T07:22:04;2.10;1.00
16479;DHT22;8350;52.316;10.530;2023-04-03T07:24:34;2.40;1.00
16479;DHT22;8350;52.316;10.530;2023-04-03T07:27:01;2.50;1.00
16479;DHT22;8350;52.316;10.530;2023-04-03T07:29:29;2.50;1.00
16479;DHT22;8350;52.316;10.530;2023-04-03T07:31:56;2.50;1.00
16479;DHT22;8350;52.316;10.530;2023-04-03T07:34:24;2.50;1.00
16479;DHT22;8350;52.316;10.530;2023-04-03T07:37:08;2.60;1.00
16479;DHT22;8350;52.316;10.530;2023-04-03T07:39:35;2.60;1.00
16479;DHT22;8350;52.316;10.530;2023-04-03T07:42:02;2.80;1.00
16479;DHT22;8350;52.316;10.530;2023-04-03T07:44:31;2.90;1.00
16479;DHT22;8350;52.316;10.530;2023-04-03T07:46:58;3.10;1.00
16479;DHT22;8350;52.316;10.530;2023-04-03T07:49:27;3.00;1.00
16479;DHT22;8350;52.316;10.530;2023-04-03T07:51:54;3.00;1.00
16479;DHT22;8350;52.316;10.530;2023-04-03T07:54:21;3.20;1.00
16479;DHT22;8350;52.316;10.530;2023-04-03T07:56:50;3.30;1.00
16479;DHT22;8350;52.316;10.530;2023-04-03T07:59:18;3.50;1.00
16479;DHT22;8350;52.316;10.530;2023-04-03T08:01:45;3.70;1.00
16479;DHT22;8350;52.316;10.530;2023-04-03T08:04:12;4.00;1.00
16479;DHT22;8350;52.316;10.530;2023-04-03T08:06:44;4.20;1.00
16479;DHT22;8350;52.316;10.530;2023-04-03T08:09:11;4.10;1.00
16479;DHT22;8350;52.316;10.530;2023-04-03T08:11:39;4.30;1.00
16479;DHT22;8350;52.316;10.530;2023-04-03T08:14:06;4.40;1.00
16479;DHT22;8350;52.316;10.530;2023-04-03T08:16:41;4.40;1.00
16479;DHT22;8350;52.316;10.530;2023-04-03T08:19:08;4.60;1.00
16479;DHT22;8350;52.316;10.530;2023-04-03T08:21:36;4.80;99.90
16479;DHT22;8350;52.316;10.530;2023-04-03T08:24:05;4.70;99.90
16479;DHT22;8350;52.316;10.530;2023-04-03T08:26:32;4.70;99.90
16479;DHT22;8350;52.316;10.530;2023-04-03T08:28:59;4.80;99.90
16479;DHT22;8350;52.316;10.530;2023-04-03T08:31:28;4.90;99.90
16479;DHT22;8350;52.316;10.530;2023-04-03T08:33:57;5.20;99.90
16479;DHT22;8350;52.316;10.530;2023-04-03T08:36:25;5.40;99.90
16479;DHT22;8350;52.316;10.530;2023-04-03T08:39:00;5.50;1.00
16479;DHT22;8350;52.316;10.530;2023-04-03T08:41:33;5.50;1.00
16479;DHT22;8350;52.316;10.530;2023-04-03T08:44:11;5.10;1.00
16479;DHT22;8350;52.316;10.530;2023-04-03T08:46:52;5.00;1.00
16479;DHT22;8350;52.316;10.530;2023-04-03T08:49:24;5.10;1.00
16479;DHT22;8350;52.316;10.530;2023-04-03T08:51:54;5.30;1.00
16479;DHT22;8350;52.316;10.530;2023-04-03T08:54:30;5.30;99.90
16479;DHT22;8350;52.316;10.530;2023-04-03T08:57:02;5.00;1.00
16479;DHT22;8350;52.316;10.530;2023-04-03T08:59:34;4.80;99.90
16479;DHT22;8350;52.316;10.530;2023-04-03T09:02:21;4.90;1.00
16479;DHT22;8350;52.316;10.530;2023-04-03T09:04:49;5.00;99.90
16479;DHT22;8350;52.316;10.530;2023-04-03T09:07:19;4.90;1.00
16479;DHT22;8350;52.316;10.530;2023-04-03T09:09:49;4.80;1.00
16479;DHT22;8350;52.316;10.530;2023-04-03T09:12:21;5.00;1.00
16479;DHT22;8350;52.316;10.530;2023-04-03T09:14:57;5.10;99.90
16479;DHT22;8350;52.316;10.530;2023-04-03T09:17:37;5.30;99.90
16479;DHT22;8350;52.316;10.530;2023-04-03T09:20:16;5.40;15.90
16479;DHT22;8350;52.316;10.530;2023-04-03T09:22:45;5.20;99.90
16479;DHT22;8350;52.316;10.530;2023-04-03T09:25:15;5.10;99.90
16479;DHT22;8350;52.316;10.530;2023-04-03T09:27:45;5.10;63.80
16479;DHT22;8350;52.316;10.530;2023-04-03T09:30:13;4.90;1.00
16479;DHT22;8350;52.316;10.530;2023-04-03T09:32:43;5.30;1.00
16479;DHT22;8350;52.316;10.530;2023-04-03T09:35:23;5.50;99.90
16479;DHT22;8350;52.316;10.530;2023-04-03T09:37:52;5.40;99.90
16479;DHT22;8350;52.316;10.530;2023-04-03T09:40:33;5.30;99.90
16479;DHT22;8350;52.316;10.530;2023-04-03T09:43:23;5.20;7.10
16479;DHT22;8350;52.316;10.530;2023-04-03T09:45:54;5.00;1.00
16479;DHT22;8350;52.316;10.530;2023-04-03T09:48:24;5.10;99.90
16479;DHT22;8350;52.316;10.530;2023-04-03T09:50:56;5.60;99.90
16479;DHT22;8350;52.316;10.530;2023-04-03T09:53:33;5.90;1.00
16479;DHT22;8350;52.316;10.530;2023-04-03T09:56:04;6.00;99.90
16479;DHT22;8350;52.316;10.530;2023-04-03T09:58:36;5.70;99.90
16479;DHT22;8350;52.316;10.530;2023-04-03T10:01:04;5.10;99.90
16479;DHT22;8350;52.316;10.530;2023-04-03T10:03:33;4.90;1.00
16479;DHT22;8350;52.316;10.530;2023-04-03T10:06:02;4.80;99.90
16479;DHT22;8350;52.316;10.530;2023-04-03T10:08:31;4.70;99.90
16479;DHT22;8350;52.316;10.530;2023-04-03T10:11:12;4.70;1.00
16479;DHT22;8350;52.316;10.530;2023-04-03T10:14:02;4.70;1.00
16479;DHT22;8350;52.316;10.530;2023-04-03T10:16:35;4.80;99.90
16479;DHT22;8350;52.316;10.530;2023-04-03T10:19:31;4.70;99.90
16479;DHT22;8350;52.316;10.530;2023-04-03T10:22:01;4.70;1.00
16479;DHT22;8350;52.316;10.530;2023-04-03T10:24:36;4.80;99.90
16479;DHT22;8350;52.316;10.530;2023-04-03T10:27:08;4.90;99.90
16479;DHT22;8350;52.316;10.530;2023-04-03T10:29:46;5.00;99.90
16479;DHT22;8350;52.316;10.530;2023-04-03T10:32:26;5.00;99.90
16479;DHT22;8350;52.316;10.530;2023-04-03T10:35:03;5.00;1.00
16479;DHT22;8350;52.316;10.530;2023-04-03T10:37:45;5.10;1.00
16479;DHT22;8350;52.316;10.530;2023-04-03T10:40:23;5.20;1.00
16479;DHT22;8350;52.316;10.530;2023-04-03T10:42:56;5.10;99.90
16479;DHT22;8350;52.316;10.530;2023-04-03T10:45:31;5.10;99.90
16479;DHT22;8350;52.316;10.530;2023-04-03T10:48:06;5.10;33.20
16479;DHT22;8350;52.316;10.530;2023-04-03T10:50:41;5.10;99.90
16479;DHT22;8350;52.316;10.530;2023-04-03T10:53:17;5.10;1.00
16479;DHT22;8350;52.316;10.530;2023-04-03T10:55:53;5.20;1.00
16479;DHT22;8350;52.316;10.530;2023-04-03T10:58:26;5.20;1.00
16479;DHT22;8350;52.316;10.530;2023-04-03T11:01:08;5.20;53.90
16479;DHT22;8350;52.316;10.530;2023-04-03T11:03:39;5.10;99.90
16479;DHT22;8350;52.316;10.530;2023-04-03T11:06:09;5.20;99.90
16479;DHT22;8350;52.316;10.530;2023-04-03T11:08:40;5.80;1.00
16479;DHT22;8350;52.316;10.530;2023-04-03T11:11:15;6.30;1.00
16479;DHT22;8350;52.316;10.530;2023-04-03T11:13:45;6.90;1.00
16479;DHT22;8350;52.316;10.530;2023-04-03T11:16:21;7.10;1.00
16479;DHT22;8350;52.316;10.530;2023-04-03T11:18:57;7.00;99.90
16479;DHT22;8350;52.316;10.530;2023-04-03T11:21:29;7.10;99.90
16479;DHT22;8350;52.316;10.530;2023-04-03T11:23:59;7.10;1.00
16479;DHT22;8350;52.316;10.530;2023-04-03T11:26:31;7.20;99.90
16479;DHT22;8350;52.316;10.530;2023-04-03T11:29:06;7.40;99.90
16479;DHT22;8350;52.316;10.530;2023-04-03T11:32:01;7.20;1.00
16479;DHT22;8350;52.316;10.530;2023-04-03T11:34:35;6.90;99.90
16479;DHT22;8350;52.316;10.530;2023-04-03T11:37:14;6.60;1.00
16479;DHT22;8350;52.316;10.530;2023-04-03T11:39:53;6.70;99.90
16479;DHT22;8350;52.316;10.530;2023-04-03T11:42:35;6.80;1.00
16479;DHT22;8350;52.316;10.530;2023-04-03T11:45:29;6.70;1.00
16479;DHT22;8350;52.316;10.530;2023-04-03T11:48:01;6.20;1.00
16479;DHT22;8350;52.316;10.530;2023-04-03T11:50:40;6.00;1.00
16479;DHT22;8350;52.316;10.530;2023-04-03T11:53:26;5.90;1.00
16479;DHT22;8350;52.316;10.530;2023-04-03T11:56:03;5.90;1.00
16479;DHT22;8350;52.316;10.530;2023-04-03T11:58:32;5.90;1.00
16479;DHT22;8350;52.316;10.530;2023-04-03T12:01:06;5.90;99.90
16479;DHT22;8350;52.316;10.530;2023-04-03T12:07:00;5.70;42.60
16479;DHT22;8350;52.316;10.530;2023-04-03T12:12:40;6.50;1.00
16479;DHT22;8350;52.316;10.530;2023-04-03T12:18:41;7.20;1.00
16479;DHT22;8350;52.316;10.530;2023-04-03T12:21:09;7.40;99.90
16479;DHT22;8350;52.316;10.530;2023-04-03T12:23:57;7.10;1.00
16479;DHT22;8350;52.316;10.530;2023-04-03T12:26:28;7.10;99.90
16479;DHT22;8350;52.316;10.530;2023-04-03T12:28:57;7.20;1.00
16479;DHT22;8350;52.316;10.530;2023-04-03T12:31:31;7.40;1.00
16479;DHT22;8350;52.316;10.530;2023-04-03T12:34:16;7.60;1.00
16479;DHT22;8350;52.316;10.530;2023-04-03T12:36:54;7.50;1.00
16479;DHT22;8350;52.316;10.530;2023-04-03T12:39:42;7.40;1.00
16479;DHT22;8350;52.316;10.530;2023-04-03T12:42:32;7.40;1.00
16479;DHT22;8350;52.316;10.530;2023-04-03T12:45:13;6.80;1.00
16479;DHT22;8350;52.316;10.530;2023-04-03T12:47:45;6.70;1.00
16479;DHT22;8350;52.316;10.530;2023-04-03T12:50:21;6.70;99.90
16479;DHT22;8350;52.316;10.530;2023-04-03T12:52:54;6.60;99.90
16479;DHT22;8350;52.316;10.530;2023-04-03T12:55:23;6.60;1.00
16479;DHT22;8350;52.316;10.530;2023-04-03T12:57:49;6.20;1.00
16479;DHT22;8350;52.316;10.530;2023-04-03T13:00:30;6.10;1.00
16479;DHT22;8350;52.316;10.530;2023-04-03T13:02:59;6.10;1.00
16479;DHT22;8350;52.316;10.530;2023-04-03T13:05:26;6.40;4.50
16479;DHT22;8350;52.316;10.530;2023-04-03T13:07:58;6.80;75.70
16479;DHT22;8350;52.316;10.530;2023-04-03T13:10:27;7.20;1.00
16479;DHT22;8350;52.316;10.530;2023-04-03T13:12:56;7.50;99.90
16479;DHT22;8350;52.316;10.530;2023-04-03T13:15:25;7.50;1.00
16479;DHT22;8350;52.316;10.530;2023-04-03T13:17:54;7.40;1.00
16479;DHT22;8350;52.316;10.530;2023-04-03T13:20:25;6.90;99.90
16479;DHT22;8350;52.316;10.530;2023-04-03T13:22:57;6.60;99.90
16479;DHT22;8350;52.316;10.530;2023-04-03T13:25:33;6.60;1.00
16479;DHT22;8350;52.316;10.530;2023-04-03T13:28:03;6.70;99.90
16479;DHT22;8350;52.316;10.530;2023-04-03T13:30:33;6.90;1.00
16479;DHT22;8350;52.316;10.530;2023-04-03T13:33:04;7.10;68.10
16479;DHT22;8350;52.316;10.530;2023-04-03T13:35:37;7.40;1.00
16479;DHT22;8350;52.316;10.530;2023-04-03T13:38:07;7.60;1.00
16479;DHT22;8350;52.316;10.530;2023-04-03T13:40:51;8.00;1.00
16479;DHT22;8350;52.316;10.530;2023-04-03T13:43:20;7.80;1.00
16479;DHT22;8350;52.316;10.530;2023-04-03T13:45:57;7.60;99.90
16479;DHT22;8350;52.316;10.530;2023-04-03T13:48:24;7.20;1.00
16479;DHT22;8350;52.316;10.530;2023-04-03T13:50:58;6.90;1.00
16479;DHT22;8350;52.316;10.530;2023-04-03T13:53:27;6.90;99.90
16479;DHT22;8350;52.316;10.530;2023-04-03T13:55:59;6.80;1.00
16479;DHT22;8350;52.316;10.530;2023-04-03T13:58:31;7.00;1.00
16479;DHT22;8350;52.316;10.530;2023-04-03T14:01:05;7.40;99.90
16479;DHT22;8350;52.316;10.530;2023-04-03T14:03:40;7.50;99.90
16479;DHT22;8350;52.316;10.530;2023-04-03T14:06:10;7.70;99.90
16479;DHT22;8350;52.316;10.530;2023-04-03T14:08:37;7.60;1.00
16479;DHT22;8350;52.316;10.530;2023-04-03T14:11:08;7.40;1.00
16479;DHT22;8350;52.316;10.530;2023-04-03T14:13:35;7.30;1.00
16479;DHT22;8350;52.316;10.530;2023-04-03T14:16:02;7.60;1.00
16479;DHT22;8350;52.316;10.530;2023-04-03T14:18:29;7.50;1.00
16479;DHT22;8350;52.316;10.530;2023-04-03T14:20:56;7.50;99.90
16479;DHT22;8350;52.316;10.530;2023-04-03T14:23:23;7.20;1.00
16479;DHT22;8350;52.316;10.530;2023-04-03T14:25:58;7.10;1.00
16479;DHT22;8350;52.316;10.530;2023-04-03T14:28:27;6.70;1.00
16479;DHT22;8350;52.316;10.530;2023-04-03T14:30:54;6.60;99.90
16479;DHT22;8350;52.316;10.530;2023-04-03T14:33:24;6.80;1.00
16479;DHT22;8350;52.316;10.530;2023-04-03T14:35:52;7.10;1.00
16479;DHT22;8350;52.316;10.530;2023-04-03T14:38:23;7.30;99.90
16479;DHT22;8350;52.316;10.530;2023-04-03T14:40:51;7.50;58.60
16479;DHT22;8350;52.316;10.530;2023-04-03T14:43:25;7.60;1.00
16479;DHT22;8350;52.316;10.530;2023-04-03T14:45:53;7.50;32.60
16479;DHT22;8350;52.316;10.530;2023-04-03T14:48:30;7.60;99.90
16479;DHT22;8350;52.316;10.530;2023-04-03T14:50:57;7.30;99.90
16479;DHT22;8350;52.316;10.530;2023-04-03T14:53:24;7.00;1.00
16479;DHT22;8350;52.316;10.530;2023-04-03T14:55:52;6.90;1.00
16479;DHT22;8350;52.316;10.530;2023-04-03T14:58:20;6.70;1.00
16479;DHT22;8350;52.316;10.530;2023-04-03T15:00:47;6.70;1.00
16479;DHT22;8350;52.316;10.530;2023-04-03T15:03:18;6.50;1.00
16479;DHT22;8350;52.316;10.530;2023-04-03T15:05:47;6.50;99.90
16479;DHT22;8350;52.316;10.530;2023-04-03T15:08:20;6.70;1.00
16479;DHT22;8350;52.316;10.530;2023-04-03T15:10:48;6.80;1.00
16479;DHT22;8350;52.316;10.530;2023-04-03T15:13:15;6.60;1.00
16479;DHT22;8350;52.316;10.530;2023-04-03T15:15:44;6.60;1.00
16479;DHT22;8350;52.316;10.530;2023-04-03T15:18:19;7.00;1.00
16479;DHT22;8350;52.316;10.530;2023-04-03T15:20:46;7.30;99.90
16479;DHT22;8350;52.316;10.530;2023-04-03T15:23:15;7.60;99.90
16479;DHT22;8350;52.316;10.530;2023-04-03T15:25:47;7.80;1.00
16479;DHT22;8350;52.316;10.530;2023-04-03T15:28:19;7.70;99.90
16479;DHT22;8350;52.316;10.530;2023-04-03T15:30:48;7.40;26.40
16479;DHT22;8350;52.316;10.530;2023-04-03T15:33:16;6.90;99.90
16479;DHT22;8350;52.316;10.530;2023-04-03T15:35:44;6.50;1.00
16479;DHT22;8350;52.316;10.530;2023-04-03T15:38:11;6.40;1.00
16479;DHT22;8350;52.316;10.530;2023-04-03T15:40:40;6.30;84.60
16479;DHT22;8350;52.316;10.530;2023-04-03T15:43:08;6.40;1.00
16479;DHT22;8350;52.316;10.530;2023-04-03T15:45:36;6.40;99.90
16479;DHT22;8350;52.316;10.530;2023-04-03T15:48:03;6.60;1.00
16479;DHT22;8350;52.316;10.530;2023-04-03T15:50:31;6.70;1.00
16479;DHT22;8350;52.316;10.530;2023-04-03T15:52:59;6.90;1.00
16479;DHT22;8350;52.316;10.530;2023-04-03T15:55:28;6.80;99.90
16479;DHT22;8350;52.316;10.530;2023-04-03T15:57:56;6.60;22.20
16479;DHT22;8350;52.316;10.530;2023-04-03T16:00:26;6.60;1.00
16479;DHT22;8350;52.316;10.530;2023-04-03T16:02:56;6.40;1.00
16479;DHT22;8350;52.316;10.530;2023-04-03T16:05:24;6.50;1.00
16479;DHT22;8350;52.316;10.530;2023-04-03T16:07:54;6.30;1.00
16479;DHT22;8350;52.316;10.530;2023-04-03T16:10:22;6.30;99.90
16479;DHT22;8350;52.316;10.530;2023-04-03T16:12:50;6.10;1.00
16479;DHT22;8350;52.316;10.530;2023-04-03T16:15:17;6.10;1.00
16479;DHT22;8350;52.316;10.530;2023-04-03T16:17:44;6.00;1.00